Terminal Aerodrome Forecast
Issued by NWS

Home | Current Version | Previous Version | Text Only | Print | Product List | Glossary On
Versions: 1 2 3 4 5 6 7 8 9 10 11 12 13 14
000
FTUS45 KABQ 051700 RRA
TAFGUP
TAF
KGUP 051741Z 0518/0618 24015G25KT P6SM VCSH SCT030 BKN040
     FM052100 25017G27KT P6SM -SHRA BKN035
      TEMPO 0522/0524 VRB25G35KT 6SM TSRA OVC035CB
     FM060300 24015G23KT P6SM VCSH BKN040
     FM060800 23009KT P6SM SCT015 OVC050
      TEMPO 0608/0612 5SM BR OVC015
     FM061500 23012KT P6SM FEW040 BKN060=

USA.gov is the U.S. government's official web portal to all federal, state and local government web resources and services.